sensor_id;sensor_type;location;lat;lon;timestamp;P1;durP1;ratioP1;P2;durP2;ratioP2
13026;SDS011;6580;42.680;23.324;2023-08-24T00:02:11;10.63;;;9.63;;
13026;SDS011;6580;42.680;23.324;2023-08-24T00:04:57;10.00;;;9.00;;
13026;SDS011;6580;42.680;23.324;2023-08-24T00:07:44;10.02;;;9.02;;
13026;SDS011;6580;42.680;23.324;2023-08-24T00:10:31;10.35;;;9.25;;
13026;SDS011;6580;42.680;23.324;2023-08-24T00:13:17;10.50;;;9.45;;
13026;SDS011;6580;42.680;23.324;2023-08-24T00:16:09;9.60;;;8.70;;
13026;SDS011;6580;42.680;23.324;2023-08-24T00:18:55;9.93;;;9.02;;
13026;SDS011;6580;42.680;23.324;2023-08-24T00:21:41;11.20;;;9.25;;
13026;SDS011;6580;42.680;23.324;2023-08-24T00:24:26;9.93;;;8.93;;
13026;SDS011;6580;42.680;23.324;2023-08-24T00:27:11;9.65;;;8.75;;
13026;SDS011;6580;42.680;23.324;2023-08-24T00:29:58;10.43;;;9.15;;
13026;SDS011;6580;42.680;23.324;2023-08-24T00:32:45;10.88;;;9.90;;
13026;SDS011;6580;42.680;23.324;2023-08-24T00:35:31;10.65;;;9.27;;
13026;SDS011;6580;42.680;23.324;2023-08-24T00:38:17;11.07;;;9.23;;
13026;SDS011;6580;42.680;23.324;2023-08-24T00:41:03;10.30;;;9.23;;
13026;SDS011;6580;42.680;23.324;2023-08-24T00:43:48;10.43;;;9.40;;
13026;SDS011;6580;42.680;23.324;2023-08-24T00:46:34;9.77;;;8.77;;
13026;SDS011;6580;42.680;23.324;2023-08-24T00:52:08;10.35;;;9.45;;
13026;SDS011;6580;42.680;23.324;2023-08-24T00:54:54;10.45;;;9.45;;
13026;SDS011;6580;42.680;23.324;2023-08-24T00:57:40;10.13;;;9.10;;
13026;SDS011;6580;42.680;23.324;2023-08-24T01:00:26;9.48;;;8.68;;
13026;SDS011;6580;42.680;23.324;2023-08-24T01:03:12;11.13;;;10.02;;
13026;SDS011;6580;42.680;23.324;2023-08-24T01:05:59;9.90;;;9.00;;
13026;SDS011;6580;42.680;23.324;2023-08-24T01:08:45;10.18;;;9.13;;
13026;SDS011;6580;42.680;23.324;2023-08-24T01:11:38;10.98;;;9.98;;
13026;SDS011;6580;42.680;23.324;2023-08-24T01:14:38;10.88;;;9.32;;
13026;SDS011;6580;42.680;23.324;2023-08-24T01:17:29;10.07;;;9.07;;
13026;SDS011;6580;42.680;23.324;2023-08-24T01:20:17;11.20;;;10.13;;
13026;SDS011;6580;42.680;23.324;2023-08-24T01:23:07;11.20;;;10.05;;
13026;SDS011;6580;42.680;23.324;2023-08-24T01:26:07;10.90;;;9.93;;
13026;SDS011;6580;42.680;23.324;2023-08-24T01:28:54;10.80;;;9.77;;
13026;SDS011;6580;42.680;23.324;2023-08-24T01:31:43;11.93;;;10.73;;
13026;SDS011;6580;42.680;23.324;2023-08-24T01:34:29;11.00;;;9.90;;
13026;SDS011;6580;42.680;23.324;2023-08-24T01:37:16;11.60;;;10.50;;
13026;SDS011;6580;42.680;23.324;2023-08-24T01:40:03;10.43;;;9.43;;
13026;SDS011;6580;42.680;23.324;2023-08-24T01:42:56;10.95;;;9.95;;
13026;SDS011;6580;42.680;23.324;2023-08-24T01:45:44;10.70;;;9.60;;
13026;SDS011;6580;42.680;23.324;2023-08-24T01:48:30;11.07;;;9.98;;
13026;SDS011;6580;42.680;23.324;2023-08-24T01:51:16;11.05;;;9.95;;
13026;SDS011;6580;42.680;23.324;2023-08-24T01:54:03;10.15;;;9.20;;
13026;SDS011;6580;42.680;23.324;2023-08-24T01:56:49;10.48;;;9.48;;
13026;SDS011;6580;42.680;23.324;2023-08-24T01:59:37;11.30;;;10.07;;
13026;SDS011;6580;42.680;23.324;2023-08-24T02:02:23;11.15;;;10.15;;
13026;SDS011;6580;42.680;23.324;2023-08-24T02:05:09;11.25;;;10.23;;
13026;SDS011;6580;42.680;23.324;2023-08-24T02:07:54;10.15;;;9.15;;
13026;SDS011;6580;42.680;23.324;2023-08-24T02:10:42;10.75;;;9.57;;
13026;SDS011;6580;42.680;23.324;2023-08-24T02:13:27;11.20;;;9.68;;
13026;SDS011;6580;42.680;23.324;2023-08-24T02:16:14;11.50;;;10.32;;
13026;SDS011;6580;42.680;23.324;2023-08-24T02:19:00;10.82;;;9.73;;
13026;SDS011;6580;42.680;23.324;2023-08-24T02:21:46;11.30;;;10.13;;
13026;SDS011;6580;42.680;23.324;2023-08-24T02:24:32;11.00;;;10.00;;
13026;SDS011;6580;42.680;23.324;2023-08-24T02:27:18;11.55;;;10.45;;
13026;SDS011;6580;42.680;23.324;2023-08-24T02:30:05;11.90;;;10.70;;
13026;SDS011;6580;42.680;23.324;2023-08-24T02:32:55;10.52;;;9.52;;
13026;SDS011;6580;42.680;23.324;2023-08-24T02:35:41;11.18;;;10.05;;
13026;SDS011;6580;42.680;23.324;2023-08-24T02:38:28;10.82;;;9.82;;
13026;SDS011;6580;42.680;23.324;2023-08-24T02:41:14;10.63;;;9.68;;
13026;SDS011;6580;42.680;23.324;2023-08-24T02:44:01;11.00;;;9.85;;
13026;SDS011;6580;42.680;23.324;2023-08-24T02:46:48;11.23;;;10.13;;
13026;SDS011;6580;42.680;23.324;2023-08-24T02:49:38;10.20;;;9.23;;
13026;SDS011;6580;42.680;23.324;2023-08-24T02:52:24;11.57;;;10.38;;
13026;SDS011;6580;42.680;23.324;2023-08-24T02:55:09;11.43;;;10.02;;
13026;SDS011;6580;42.680;23.324;2023-08-24T02:57:55;11.05;;;9.95;;
13026;SDS011;6580;42.680;23.324;2023-08-24T03:00:42;11.05;;;9.98;;
13026;SDS011;6580;42.680;23.324;2023-08-24T03:03:27;11.40;;;10.18;;
13026;SDS011;6580;42.680;23.324;2023-08-24T03:06:15;12.18;;;11.07;;
13026;SDS011;6580;42.680;23.324;2023-08-24T03:09:02;11.23;;;10.02;;
13026;SDS011;6580;42.680;23.324;2023-08-24T03:11:49;11.52;;;10.40;;
13026;SDS011;6580;42.680;23.324;2023-08-24T03:14:35;11.70;;;10.60;;
13026;SDS011;6580;42.680;23.324;2023-08-24T03:17:21;12.07;;;10.98;;
13026;SDS011;6580;42.680;23.324;2023-08-24T03:20:07;11.25;;;10.15;;
13026;SDS011;6580;42.680;23.324;2023-08-24T03:22:57;11.10;;;10.07;;
13026;SDS011;6580;42.680;23.324;2023-08-24T03:25:43;11.52;;;10.25;;
13026;SDS011;6580;42.680;23.324;2023-08-24T03:28:28;11.68;;;10.35;;
13026;SDS011;6580;42.680;23.324;2023-08-24T03:31:14;11.90;;;10.73;;
13026;SDS011;6580;42.680;23.324;2023-08-24T03:33:59;11.07;;;9.90;;
13026;SDS011;6580;42.680;23.324;2023-08-24T03:36:45;11.32;;;10.25;;
13026;SDS011;6580;42.680;23.324;2023-08-24T03:39:33;11.43;;;10.32;;
13026;SDS011;6580;42.680;23.324;2023-08-24T03:42:18;11.38;;;10.20;;
13026;SDS011;6580;42.680;23.324;2023-08-24T03:45:04;11.38;;;10.27;;
13026;SDS011;6580;42.680;23.324;2023-08-24T03:47:50;11.63;;;10.52;;
13026;SDS011;6580;42.680;23.324;2023-08-24T03:50:37;12.18;;;10.93;;
13026;SDS011;6580;42.680;23.324;2023-08-24T03:53:23;11.00;;;9.90;;
13026;SDS011;6580;42.680;23.324;2023-08-24T03:56:12;12.00;;;10.88;;
13026;SDS011;6580;42.680;23.324;2023-08-24T03:59:00;12.48;;;10.95;;
13026;SDS011;6580;42.680;23.324;2023-08-24T04:01:47;10.63;;;9.52;;
13026;SDS011;6580;42.680;23.324;2023-08-24T04:04:34;12.65;;;10.05;;
13026;SDS011;6580;42.680;23.324;2023-08-24T04:07:20;11.07;;;9.93;;
13026;SDS011;6580;42.680;23.324;2023-08-24T04:10:07;11.15;;;10.13;;
13026;SDS011;6580;42.680;23.324;2023-08-24T04:12:55;10.68;;;9.68;;
13026;SDS011;6580;42.680;23.324;2023-08-24T04:15:42;11.23;;;10.02;;
13026;SDS011;6580;42.680;23.324;2023-08-24T04:18:27;13.07;;;11.25;;
13026;SDS011;6580;42.680;23.324;2023-08-24T04:21:14;13.00;;;11.80;;
13026;SDS011;6580;42.680;23.324;2023-08-24T04:24:01;11.63;;;10.50;;
13026;SDS011;6580;42.680;23.324;2023-08-24T04:26:47;13.30;;;11.85;;
13026;SDS011;6580;42.680;23.324;2023-08-24T04:29:36;12.20;;;11.10;;
13026;SDS011;6580;42.680;23.324;2023-08-24T04:32:26;14.15;;;12.65;;
13026;SDS011;6580;42.680;23.324;2023-08-24T04:35:14;12.90;;;11.57;;
13026;SDS011;6580;42.680;23.324;2023-08-24T04:38:00;13.93;;;12.52;;
13026;SDS011;6580;42.680;23.324;2023-08-24T04:40:50;12.88;;;11.57;;
13026;SDS011;6580;42.680;23.324;2023-08-24T04:43:37;13.48;;;12.07;;
13026;SDS011;6580;42.680;23.324;2023-08-24T04:46:23;12.48;;;11.18;;
13026;SDS011;6580;42.680;23.324;2023-08-24T04:49:10;13.88;;;11.77;;
13026;SDS011;6580;42.680;23.324;2023-08-24T04:51:55;13.88;;;12.38;;
13026;SDS011;6580;42.680;23.324;2023-08-24T04:54:40;13.25;;;11.85;;
13026;SDS011;6580;42.680;23.324;2023-08-24T04:57:25;14.77;;;11.98;;
13026;SDS011;6580;42.680;23.324;2023-08-24T05:00:11;13.25;;;11.85;;
13026;SDS011;6580;42.680;23.324;2023-08-24T05:03:01;13.45;;;12.15;;
13026;SDS011;6580;42.680;23.324;2023-08-24T05:05:48;14.10;;;11.70;;
13026;SDS011;6580;42.680;23.324;2023-08-24T05:08:33;14.20;;;12.52;;
13026;SDS011;6580;42.680;23.324;2023-08-24T05:11:21;13.68;;;12.13;;
13026;SDS011;6580;42.680;23.324;2023-08-24T05:14:08;15.02;;;13.23;;
13026;SDS011;6580;42.680;23.324;2023-08-24T05:16:54;16.10;;;12.63;;
13026;SDS011;6580;42.680;23.324;2023-08-24T05:19:41;17.30;;;13.45;;
13026;SDS011;6580;42.680;23.324;2023-08-24T05:22:27;14.23;;;12.68;;
13026;SDS011;6580;42.680;23.324;2023-08-24T05:25:13;13.57;;;12.18;;
13026;SDS011;6580;42.680;23.324;2023-08-24T05:28:02;13.95;;;12.57;;
13026;SDS011;6580;42.680;23.324;2023-08-24T05:30:48;14.02;;;11.65;;
13026;SDS011;6580;42.680;23.324;2023-08-24T05:33:36;13.18;;;11.77;;
13026;SDS011;6580;42.680;23.324;2023-08-24T05:36:23;13.98;;;12.32;;
13026;SDS011;6580;42.680;23.324;2023-08-24T05:39:09;13.20;;;11.73;;
13026;SDS011;6580;42.680;23.324;2023-08-24T05:41:55;13.75;;;11.77;;
13026;SDS011;6580;42.680;23.324;2023-08-24T05:44:40;15.40;;;13.05;;
13026;SDS011;6580;42.680;23.324;2023-08-24T05:47:25;13.88;;;12.30;;
13026;SDS011;6580;42.680;23.324;2023-08-24T05:50:11;14.02;;;12.20;;
13026;SDS011;6580;42.680;23.324;2023-08-24T05:52:57;15.10;;;13.57;;
13026;SDS011;6580;42.680;23.324;2023-08-24T05:55:43;16.27;;;14.18;;
13026;SDS011;6580;42.680;23.324;2023-08-24T05:58:28;15.45;;;13.90;;
13026;SDS011;6580;42.680;23.324;2023-08-24T06:01:14;15.85;;;13.35;;
13026;SDS011;6580;42.680;23.324;2023-08-24T06:03:59;15.73;;;14.02;;
13026;SDS011;6580;42.680;23.324;2023-08-24T06:06:45;19.00;;;13.27;;
13026;SDS011;6580;42.680;23.324;2023-08-24T06:09:33;15.82;;;13.27;;
13026;SDS011;6580;42.680;23.324;2023-08-24T06:12:18;14.48;;;13.00;;
13026;SDS011;6580;42.680;23.324;2023-08-24T06:15:05;16.58;;;12.55;;
13026;SDS011;6580;42.680;23.324;2023-08-24T06:17:53;13.55;;;12.15;;
13026;SDS011;6580;42.680;23.324;2023-08-24T06:20:40;14.95;;;13.07;;
13026;SDS011;6580;42.680;23.324;2023-08-24T06:23:25;15.27;;;11.82;;
13026;SDS011;6580;42.680;23.324;2023-08-24T06:26:12;13.38;;;12.07;;
13026;SDS011;6580;42.680;23.324;2023-08-24T06:28:57;12.45;;;11.35;;
13026;SDS011;6580;42.680;23.324;2023-08-24T06:31:45;12.05;;;10.90;;
13026;SDS011;6580;42.680;23.324;2023-08-24T06:34:30;12.23;;;11.02;;
13026;SDS011;6580;42.680;23.324;2023-08-24T06:37:16;12.30;;;11.02;;
13026;SDS011;6580;42.680;23.324;2023-08-24T06:40:02;11.55;;;10.55;;
13026;SDS011;6580;42.680;23.324;2023-08-24T06:42:51;12.63;;;11.45;;
13026;SDS011;6580;42.680;23.324;2023-08-24T06:45:38;11.27;;;9.90;;
13026;SDS011;6580;42.680;23.324;2023-08-24T06:48:25;10.93;;;9.88;;
13026;SDS011;6580;42.680;23.324;2023-08-24T06:51:12;11.52;;;10.45;;
13026;SDS011;6580;42.680;23.324;2023-08-24T06:53:59;10.57;;;9.60;;
13026;SDS011;6580;42.680;23.324;2023-08-24T06:56:44;12.00;;;10.82;;
13026;SDS011;6580;42.680;23.324;2023-08-24T06:59:31;13.52;;;10.85;;
13026;SDS011;6580;42.680;23.324;2023-08-24T07:02:17;11.48;;;10.48;;
13026;SDS011;6580;42.680;23.324;2023-08-24T07:05:03;11.38;;;10.25;;
13026;SDS011;6580;42.680;23.324;2023-08-24T07:07:52;11.43;;;10.23;;
13026;SDS011;6580;42.680;23.324;2023-08-24T07:10:38;12.77;;;10.55;;
13026;SDS011;6580;42.680;23.324;2023-08-24T07:13:24;14.60;;;13.15;;
13026;SDS011;6580;42.680;23.324;2023-08-24T07:16:14;12.07;;;10.95;;
13026;SDS011;6580;42.680;23.324;2023-08-24T07:19:00;10.82;;;9.82;;
13026;SDS011;6580;42.680;23.324;2023-08-24T07:21:49;11.93;;;10.70;;
13026;SDS011;6580;42.680;23.324;2023-08-24T07:24:35;11.73;;;10.60;;
13026;SDS011;6580;42.680;23.324;2023-08-24T07:27:20;11.95;;;10.80;;
13026;SDS011;6580;42.680;23.324;2023-08-24T07:30:06;12.23;;;11.05;;
13026;SDS011;6580;42.680;23.324;2023-08-24T07:32:56;12.07;;;10.88;;
13026;SDS011;6580;42.680;23.324;2023-08-24T07:35:44;15.40;;;11.57;;
13026;SDS011;6580;42.680;23.324;2023-08-24T07:38:36;12.73;;;11.48;;
13026;SDS011;6580;42.680;23.324;2023-08-24T07:41:24;12.73;;;11.43;;
13026;SDS011;6580;42.680;23.324;2023-08-24T07:44:09;12.95;;;11.35;;
13026;SDS011;6580;42.680;23.324;2023-08-24T07:46:56;12.25;;;11.05;;
13026;SDS011;6580;42.680;23.324;2023-08-24T07:49:43;14.25;;;10.75;;
13026;SDS011;6580;42.680;23.324;2023-08-24T07:52:31;10.82;;;9.73;;
13026;SDS011;6580;42.680;23.324;2023-08-24T07:55:17;13.00;;;11.70;;
13026;SDS011;6580;42.680;23.324;2023-08-24T07:58:04;11.15;;;10.00;;
13026;SDS011;6580;42.680;23.324;2023-08-24T08:00:50;10.13;;;9.23;;
13026;SDS011;6580;42.680;23.324;2023-08-24T08:03:36;10.93;;;9.93;;
13026;SDS011;6580;42.680;23.324;2023-08-24T08:06:26;11.93;;;10.63;;
13026;SDS011;6580;42.680;23.324;2023-08-24T08:09:12;10.57;;;9.65;;
13026;SDS011;6580;42.680;23.324;2023-08-24T08:12:06;10.60;;;9.48;;
13026;SDS011;6580;42.680;23.324;2023-08-24T08:14:55;10.80;;;9.57;;
13026;SDS011;6580;42.680;23.324;2023-08-24T08:17:41;11.52;;;10.40;;
13026;SDS011;6580;42.680;23.324;2023-08-24T08:20:27;11.70;;;10.55;;
13026;SDS011;6580;42.680;23.324;2023-08-24T08:23:14;10.65;;;9.75;;
13026;SDS011;6580;42.680;23.324;2023-08-24T08:26:00;11.23;;;10.23;;
13026;SDS011;6580;42.680;23.324;2023-08-24T08:28:46;10.48;;;9.57;;
13026;SDS011;6580;42.680;23.324;2023-08-24T08:31:33;10.13;;;9.13;;
13026;SDS011;6580;42.680;23.324;2023-08-24T08:34:19;12.43;;;11.10;;
13026;SDS011;6580;42.680;23.324;2023-08-24T08:37:05;10.45;;;9.52;;
13026;SDS011;6580;42.680;23.324;2023-08-24T08:39:54;10.98;;;9.98;;
13026;SDS011;6580;42.680;23.324;2023-08-24T08:42:41;10.02;;;9.07;;
13026;SDS011;6580;42.680;23.324;2023-08-24T08:45:27;9.63;;;8.82;;
13026;SDS011;6580;42.680;23.324;2023-08-24T08:48:14;11.00;;;10.05;;
13026;SDS011;6580;42.680;23.324;2023-08-24T08:51:01;9.43;;;8.35;;
13026;SDS011;6580;42.680;23.324;2023-08-24T08:53:50;10.43;;;9.52;;
13026;SDS011;6580;42.680;23.324;2023-08-24T08:56:43;10.82;;;9.98;;
13026;SDS011;6580;42.680;23.324;2023-08-24T08:59:30;10.98;;;9.98;;
13026;SDS011;6580;42.680;23.324;2023-08-24T09:02:18;11.10;;;10.13;;
13026;SDS011;6580;42.680;23.324;2023-08-24T09:05:06;11.40;;;10.40;;
13026;SDS011;6580;42.680;23.324;2023-08-24T09:07:53;11.07;;;10.15;;
13026;SDS011;6580;42.680;23.324;2023-08-24T09:10:40;10.98;;;9.98;;
13026;SDS011;6580;42.680;23.324;2023-08-24T09:13:29;10.48;;;9.57;;
13026;SDS011;6580;42.680;23.324;2023-08-24T09:16:17;10.23;;;9.40;;
13026;SDS011;6580;42.680;23.324;2023-08-24T09:19:04;9.90;;;9.07;;
13026;SDS011;6580;42.680;23.324;2023-08-24T09:21:54;11.10;;;10.07;;
13026;SDS011;6580;42.680;23.324;2023-08-24T09:24:41;10.65;;;9.75;;
13026;SDS011;6580;42.680;23.324;2023-08-24T09:27:27;9.88;;;9.07;;
13026;SDS011;6580;42.680;23.324;2023-08-24T09:30:14;10.63;;;9.73;;
13026;SDS011;6580;42.680;23.324;2023-08-24T09:33:03;9.93;;;9.15;;
13026;SDS011;6580;42.680;23.324;2023-08-24T09:35:52;15.27;;;13.90;;
13026;SDS011;6580;42.680;23.324;2023-08-24T09:38:45;12.18;;;10.98;;
13026;SDS011;6580;42.680;23.324;2023-08-24T09:41:38;11.95;;;10.75;;
13026;SDS011;6580;42.680;23.324;2023-08-24T09:44:24;23.75;;;21.55;;
13026;SDS011;6580;42.680;23.324;2023-08-24T09:47:13;11.07;;;10.20;;
13026;SDS011;6580;42.680;23.324;2023-08-24T09:49:59;9.95;;;9.15;;
13026;SDS011;6580;42.680;23.324;2023-08-24T09:52:47;9.63;;;8.93;;
13026;SDS011;6580;42.680;23.324;2023-08-24T09:55:36;9.88;;;9.07;;
13026;SDS011;6580;42.680;23.324;2023-08-24T09:58:24;12.27;;;11.18;;
13026;SDS011;6580;42.680;23.324;2023-08-24T10:01:12;9.75;;;8.85;;
13026;SDS011;6580;42.680;23.324;2023-08-24T10:04:00;10.95;;;9.95;;
13026;SDS011;6580;42.680;23.324;2023-08-24T10:06:51;10.85;;;9.85;;
13026;SDS011;6580;42.680;23.324;2023-08-24T10:09:43;10.25;;;9.35;;
13026;SDS011;6580;42.680;23.324;2023-08-24T10:12:32;9.88;;;9.07;;
13026;SDS011;6580;42.680;23.324;2023-08-24T10:15:26;10.93;;;9.88;;
13026;SDS011;6580;42.680;23.324;2023-08-24T10:18:12;9.45;;;8.70;;
13026;SDS011;6580;42.680;23.324;2023-08-24T10:21:03;9.40;;;8.60;;
13026;SDS011;6580;42.680;23.324;2023-08-24T10:23:49;9.73;;;8.82;;
13026;SDS011;6580;42.680;23.324;2023-08-24T10:26:36;10.10;;;9.30;;
13026;SDS011;6580;42.680;23.324;2023-08-24T10:29:27;8.93;;;8.13;;
13026;SDS011;6580;42.680;23.324;2023-08-24T10:32:13;9.20;;;8.50;;
13026;SDS011;6580;42.680;23.324;2023-08-24T10:35:02;10.18;;;9.32;;
13026;SDS011;6580;42.680;23.324;2023-08-24T10:37:51;9.45;;;8.68;;
13026;SDS011;6580;42.680;23.324;2023-08-24T10:40:39;9.50;;;8.77;;
13026;SDS011;6580;42.680;23.324;2023-08-24T10:43:29;8.75;;;7.97;;
13026;SDS011;6580;42.680;23.324;2023-08-24T10:46:15;9.68;;;8.88;;
13026;SDS011;6580;42.680;23.324;2023-08-24T10:49:03;9.02;;;8.32;;
13026;SDS011;6580;42.680;23.324;2023-08-24T10:51:50;10.63;;;9.73;;
13026;SDS011;6580;42.680;23.324;2023-08-24T10:54:43;9.60;;;8.70;;
13026;SDS011;6580;42.680;23.324;2023-08-24T10:57:37;9.70;;;8.80;;
13026;SDS011;6580;42.680;23.324;2023-08-24T11:00:26;10.85;;;9.93;;
13026;SDS011;6580;42.680;23.324;2023-08-24T11:03:13;9.77;;;8.98;;
13026;SDS011;6580;42.680;23.324;2023-08-24T11:06:20;9.63;;;8.52;;
13026;SDS011;6580;42.680;23.324;2023-08-24T11:09:09;12.57;;;10.32;;
13026;SDS011;6580;42.680;23.324;2023-08-24T11:12:05;9.82;;;8.82;;
13026;SDS011;6580;42.680;23.324;2023-08-24T11:14:54;9.48;;;8.63;;
13026;SDS011;6580;42.680;23.324;2023-08-24T11:17:42;8.60;;;7.90;;
13026;SDS011;6580;42.680;23.324;2023-08-24T11:20:42;9.52;;;8.68;;
13026;SDS011;6580;42.680;23.324;2023-08-24T11:23:30;9.68;;;8.85;;
13026;SDS011;6580;42.680;23.324;2023-08-24T11:26:16;9.13;;;8.32;;
13026;SDS011;6580;42.680;23.324;2023-08-24T11:29:05;9.27;;;8.38;;
13026;SDS011;6580;42.680;23.324;2023-08-24T11:31:50;9.65;;;8.85;;
13026;SDS011;6580;42.680;23.324;2023-08-24T11:34:36;10.45;;;9.50;;
13026;SDS011;6580;42.680;23.324;2023-08-24T11:37:22;8.93;;;8.13;;
13026;SDS011;6580;42.680;23.324;2023-08-24T11:40:16;10.35;;;9.25;;
13026;SDS011;6580;42.680;23.324;2023-08-24T11:43:03;9.45;;;8.55;;
13026;SDS011;6580;42.680;23.324;2023-08-24T11:45:50;8.68;;;7.75;;
13026;SDS011;6580;42.680;23.324;2023-08-24T11:48:37;10.90;;;8.93;;
13026;SDS011;6580;42.680;23.324;2023-08-24T11:51:23;8.77;;;7.97;;
13026;SDS011;6580;42.680;23.324;2023-08-24T11:54:09;9.15;;;8.35;;
13026;SDS011;6580;42.680;23.324;2023-08-24T11:56:59;9.60;;;8.73;;
13026;SDS011;6580;42.680;23.324;2023-08-24T11:59:44;9.18;;;8.38;;
13026;SDS011;6580;42.680;23.324;2023-08-24T12:02:33;9.40;;;8.57;;
13026;SDS011;6580;42.680;23.324;2023-08-24T12:05:23;10.00;;;8.90;;
13026;SDS011;6580;42.680;23.324;2023-08-24T12:08:10;9.27;;;8.48;;
13026;SDS011;6580;42.680;23.324;2023-08-24T12:11:02;13.82;;;12.27;;
13026;SDS011;6580;42.680;23.324;2023-08-24T12:13:48;13.77;;;12.23;;
13026;SDS011;6580;42.680;23.324;2023-08-24T12:16:35;9.85;;;8.85;;
13026;SDS011;6580;42.680;23.324;2023-08-24T12:19:23;8.50;;;7.65;;
13026;SDS011;6580;42.680;23.324;2023-08-24T12:22:12;9.48;;;8.57;;
13026;SDS011;6580;42.680;23.324;2023-08-24T12:24:58;9.45;;;7.93;;
13026;SDS011;6580;42.680;23.324;2023-08-24T12:27:43;9.05;;;8.23;;
13026;SDS011;6580;42.680;23.324;2023-08-24T12:30:30;8.88;;;8.07;;
13026;SDS011;6580;42.680;23.324;2023-08-24T12:33:20;9.40;;;8.52;;
13026;SDS011;6580;42.680;23.324;2023-08-24T12:36:09;9.10;;;8.20;;
13026;SDS011;6580;42.680;23.324;2023-08-24T12:38:56;9.32;;;8.38;;
13026;SDS011;6580;42.680;23.324;2023-08-24T12:41:43;9.05;;;8.20;;
13026;SDS011;6580;42.680;23.324;2023-08-24T12:44:28;8.90;;;8.10;;
13026;SDS011;6580;42.680;23.324;2023-08-24T12:47:14;8.38;;;7.60;;
13026;SDS011;6580;42.680;23.324;2023-08-24T12:50:01;8.75;;;7.85;;
13026;SDS011;6580;42.680;23.324;2023-08-24T12:52:48;8.60;;;7.90;;
13026;SDS011;6580;42.680;23.324;2023-08-24T12:55:43;9.30;;;8.50;;
13026;SDS011;6580;42.680;23.324;2023-08-24T12:58:30;8.80;;;8.13;;
13026;SDS011;6580;42.680;23.324;2023-08-24T13:01:15;8.63;;;7.88;;
13026;SDS011;6580;42.680;23.324;2023-08-24T13:04:01;8.73;;;7.90;;
13026;SDS011;6580;42.680;23.324;2023-08-24T13:06:46;10.15;;;9.07;;
13026;SDS011;6580;42.680;23.324;2023-08-24T13:09:35;9.15;;;8.23;;
13026;SDS011;6580;42.680;23.324;2023-08-24T13:12:32;10.95;;;8.43;;
13026;SDS011;6580;42.680;23.324;2023-08-24T13:15:18;9.95;;;8.95;;
13026;SDS011;6580;42.680;23.324;2023-08-24T13:18:05;8.82;;;7.93;;
13026;SDS011;6580;42.680;23.324;2023-08-24T13:20:50;9.85;;;8.95;;
13026;SDS011;6580;42.680;23.324;2023-08-24T13:23:35;8.68;;;7.97;;
13026;SDS011;6580;42.680;23.324;2023-08-24T13:26:29;10.30;;;9.23;;
13026;SDS011;6580;42.680;23.324;2023-08-24T13:29:15;9.50;;;8.60;;
13026;SDS011;6580;42.680;23.324;2023-08-24T13:32:04;9.43;;;8.45;;
13026;SDS011;6580;42.680;23.324;2023-08-24T13:34:51;9.18;;;8.27;;
13026;SDS011;6580;42.680;23.324;2023-08-24T13:37:36;11.65;;;8.90;;
13026;SDS011;6580;42.680;23.324;2023-08-24T13:40:24;9.38;;;8.57;;
13026;SDS011;6580;42.680;23.324;2023-08-24T13:43:11;8.98;;;8.15;;
13026;SDS011;6580;42.680;23.324;2023-08-24T13:45:57;9.50;;;8.38;;
13026;SDS011;6580;42.680;23.324;2023-08-24T13:48:42;10.50;;;9.05;;
13026;SDS011;6580;42.680;23.324;2023-08-24T13:51:29;8.80;;;8.00;;
13026;SDS011;6580;42.680;23.324;2023-08-24T13:54:15;9.63;;;8.40;;
13026;SDS011;6580;42.680;23.324;2023-08-24T13:57:02;9.82;;;8.90;;
13026;SDS011;6580;42.680;23.324;2023-08-24T13:59:52;9.23;;;8.05;;
13026;SDS011;6580;42.680;23.324;2023-08-24T14:02:40;10.13;;;9.23;;
13026;SDS011;6580;42.680;23.324;2023-08-24T14:05:28;9.82;;;8.90;;
13026;SDS011;6580;42.680;23.324;2023-08-24T14:08:14;10.07;;;9.10;;
13026;SDS011;6580;42.680;23.324;2023-08-24T14:10:59;9.82;;;8.65;;
13026;SDS011;6580;42.680;23.324;2023-08-24T14:13:45;10.32;;;9.43;;
13026;SDS011;6580;42.680;23.324;2023-08-24T14:16:33;10.43;;;9.52;;
13026;SDS011;6580;42.680;23.324;2023-08-24T14:19:18;11.43;;;9.40;;
13026;SDS011;6580;42.680;23.324;2023-08-24T14:22:04;10.38;;;9.45;;
13026;SDS011;6580;42.680;23.324;2023-08-24T14:24:50;9.73;;;8.80;;
13026;SDS011;6580;42.680;23.324;2023-08-24T14:27:36;10.60;;;9.60;;
13026;SDS011;6580;42.680;23.324;2023-08-24T14:30:22;10.38;;;9.00;;
13026;SDS011;6580;42.680;23.324;2023-08-24T14:33:09;11.13;;;10.23;;
13026;SDS011;6580;42.680;23.324;2023-08-24T14:35:54;11.27;;;9.10;;
13026;SDS011;6580;42.680;23.324;2023-08-24T14:38:41;10.32;;;9.23;;
13026;SDS011;6580;42.680;23.324;2023-08-24T14:41:27;11.90;;;9.68;;
13026;SDS011;6580;42.680;23.324;2023-08-24T14:44:14;10.07;;;9.07;;
13026;SDS011;6580;42.680;23.324;2023-08-24T14:46:59;10.32;;;9.32;;
13026;SDS011;6580;42.680;23.324;2023-08-24T14:49:47;10.38;;;9.38;;
13026;SDS011;6580;42.680;23.324;2023-08-24T14:52:36;11.07;;;10.00;;
13026;SDS011;6580;42.680;23.324;2023-08-24T14:55:22;9.15;;;8.25;;
13026;SDS011;6580;42.680;23.324;2023-08-24T14:58:08;9.57;;;8.68;;
13026;SDS011;6580;42.680;23.324;2023-08-24T15:00:54;9.63;;;8.50;;
13026;SDS011;6580;42.680;23.324;2023-08-24T15:03:41;8.63;;;7.93;;
13026;SDS011;6580;42.680;23.324;2023-08-24T15:06:28;9.85;;;8.95;;
13026;SDS011;6580;42.680;23.324;2023-08-24T15:09:15;10.32;;;9.27;;
13026;SDS011;6580;42.680;23.324;2023-08-24T15:12:03;8.82;;;8.00;;
13026;SDS011;6580;42.680;23.324;2023-08-24T15:14:58;9.30;;;8.48;;
13026;SDS011;6580;42.680;23.324;2023-08-24T15:17:44;9.07;;;8.18;;
13026;SDS011;6580;42.680;23.324;2023-08-24T15:20:30;9.77;;;8.85;;
13026;SDS011;6580;42.680;23.324;2023-08-24T15:23:24;9.15;;;8.35;;
13026;SDS011;6580;42.680;23.324;2023-08-24T15:26:10;9.35;;;8.45;;
13026;SDS011;6580;42.680;23.324;2023-08-24T15:29:11;9.15;;;8.45;;
13026;SDS011;6580;42.680;23.324;2023-08-24T15:31:59;10.68;;;9.55;;
13026;SDS011;6580;42.680;23.324;2023-08-24T15:34:45;8.48;;;7.75;;
13026;SDS011;6580;42.680;23.324;2023-08-24T15:37:31;9.95;;;8.98;;
13026;SDS011;6580;42.680;23.324;2023-08-24T15:40:19;9.77;;;8.77;;
13026;SDS011;6580;42.680;23.324;2023-08-24T15:43:05;8.75;;;7.85;;
13026;SDS011;6580;42.680;23.324;2023-08-24T15:45:53;9.60;;;8.27;;
13026;SDS011;6580;42.680;23.324;2023-08-24T15:48:39;8.38;;;7.57;;
13026;SDS011;6580;42.680;23.324;2023-08-24T15:51:26;9.30;;;7.88;;
13026;SDS011;6580;42.680;23.324;2023-08-24T15:54:12;9.68;;;8.75;;
13026;SDS011;6580;42.680;23.324;2023-08-24T15:56:59;8.93;;;8.13;;
13026;SDS011;6580;42.680;23.324;2023-08-24T15:59:44;10.60;;;8.95;;
13026;SDS011;6580;42.680;23.324;2023-08-24T16:02:30;9.45;;;8.55;;
13026;SDS011;6580;42.680;23.324;2023-08-24T16:05:15;8.38;;;7.60;;
13026;SDS011;6580;42.680;23.324;2023-08-24T16:08:01;8.20;;;7.43;;
13026;SDS011;6580;42.680;23.324;2023-08-24T16:10:47;8.65;;;7.95;;
13026;SDS011;6580;42.680;23.324;2023-08-24T16:13:34;8.63;;;7.82;;
13026;SDS011;6580;42.680;23.324;2023-08-24T16:16:20;8.65;;;7.07;;
13026;SDS011;6580;42.680;23.324;2023-08-24T16:19:06;8.25;;;7.45;;
13026;SDS011;6580;42.680;23.324;2023-08-24T16:21:53;8.00;;;7.30;;
13026;SDS011;6580;42.680;23.324;2023-08-24T16:24:39;7.82;;;7.13;;
13026;SDS011;6580;42.680;23.324;2023-08-24T16:27:24;7.88;;;7.18;;
13026;SDS011;6580;42.680;23.324;2023-08-24T16:30:13;7.20;;;6.60;;
13026;SDS011;6580;42.680;23.324;2023-08-24T16:32:58;10.80;;;9.43;;
13026;SDS011;6580;42.680;23.324;2023-08-24T16:35:52;8.02;;;7.22;;